Time;durP1;ratioP1;P1;durP2;ratioP2;P2;SDS_P1;SDS_P2;PMS_P1;PMS_P2;Temp;Humidity;BMP_temperature;BMP_pressure;BME280_temperature;BME280_humidity;BME280_pressure;Samples;Min_cycle;Max_cycle;Signal;HPM_P1;HPM_P2
2023/07/04 00:01:30;;;;;;;8.75;4.43;;;14.80;44.70;;;;;;6251257;22;20110;-90
2023/07/04 00:04:24;;;;;;;7.85;4.03;;;14.80;99.90;;;;;;6252274;22;20301;-91
2023/07/04 00:07:14;;;;;;;11.02;4.82;;;14.80;1.00;;;;;;6230916;22;20025;-89
2023/07/04 00:10:03;;;;;;;9.25;5.05;;;14.70;99.90;;;;;;6249716;23;20028;-91
2023/07/04 00:12:51;;;;;;;9.05;4.72;;;14.70;1.00;;;;;;6252649;22;20435;-91
2023/07/04 00:15:47;;;;;;;9.88;4.63;;;14.70;99.90;;;;;;6251682;22;20099;-90
2023/07/04 00:18:36;;;;;;;11.38;4.50;;;14.60;1.00;;;;;;6252724;22;20035;-92
2023/07/04 00:21:26;;;;;;;10.57;5.15;;;14.60;99.90;;;;;;6250496;23;20339;-91
2023/07/04 00:24:17;;;;;;;8.70;4.40;;;14.60;1.00;;;;;;6226584;23;20043;-91
2023/07/04 00:27:05;;;;;;;10.40;4.45;;;14.60;99.90;;;;;;6227376;23;20038;-91
2023/07/04 00:29:58;;;;;;;9.98;4.45;;;14.60;1.00;;;;;;6227328;23;20024;-92
2023/07/04 00:32:45;;;;;;;9.60;5.40;;;14.60;1.00;;;;;;6248641;23;20027;-91
2023/07/04 00:35:33;;;;;;;9.07;4.60;;;14.60;99.90;;;;;;6250413;22;20027;-91
2023/07/04 00:38:20;;;;;;;9.40;4.82;;;14.70;69.60;;;;;;6250752;22;20095;-88
2023/07/04 00:41:28;;;;;;;10.68;4.80;;;14.70;99.90;;;;;;6240970;23;20028;-90
2023/07/04 00:44:22;;;;;;;7.63;4.60;;;14.70;99.90;;;;;;6228816;23;20051;-89
2023/07/04 00:47:21;;;;;;;7.45;3.90;;;14.80;38.60;;;;;;6223044;23;20024;-87
2023/07/04 00:50:13;;;;;;;11.15;4.63;;;14.80;1.00;;;;;;6203313;23;20421;-86
2023/07/04 00:53:09;;;;;;;8.98;4.25;;;14.90;1.00;;;;;;6201679;23;20029;-86
2023/07/04 00:55:58;;;;;;;9.70;4.43;;;15.00;1.00;;;;;;6197305;23;20028;-91
2023/07/04 00:58:46;;;;;;;11.23;4.60;;;15.00;1.00;;;;;;6218356;23;20032;-91
2023/07/04 01:01:34;;;;;;;8.05;4.68;;;15.10;99.90;;;;;;6195807;23;20047;-88
2023/07/04 01:04:23;;;;;;;8.20;3.97;;;15.10;60.80;;;;;;6194872;23;20034;-92
2023/07/04 01:07:19;;;;;;;8.57;4.68;;;15.10;1.00;;;;;;6195311;23;20397;-89
2023/07/04 01:10:23;;;;;;;9.13;4.25;;;15.10;1.00;;;;;;6195654;23;20325;-89
2023/07/04 01:13:33;;;;;;;11.27;4.65;;;15.20;99.90;;;;;;6215434;23;20213;-89
2023/07/04 01:16:22;;;;;;;9.70;4.10;;;15.20;99.90;;;;;;6219642;23;20059;-91
2023/07/04 01:19:12;;;;;;;7.35;4.25;;;15.20;68.50;;;;;;6194244;23;20025;-90
2023/07/04 01:22:14;;;;;;;8.45;3.70;;;15.20;1.00;;;;;;6197174;23;20347;-90
2023/07/04 01:25:14;;;;;;;8.80;3.80;;;15.30;1.00;;;;;;6216635;23;20112;-89
2023/07/04 01:28:03;;;;;;;10.40;4.03;;;15.30;1.00;;;;;;6217188;23;20035;-91
2023/07/04 01:30:51;;;;;;;7.43;4.22;;;15.30;99.90;;;;;;6218231;23;20301;-90
2023/07/04 01:33:40;;;;;;;9.60;4.00;;;15.30;99.90;;;;;;6233949;23;20009;-88
2023/07/04 01:36:30;;;;;;;7.82;4.00;;;15.40;1.00;;;;;;6213013;23;20054;-88
2023/07/04 01:39:18;;;;;;;9.00;3.53;;;15.40;1.00;;;;;;6230321;23;20032;-91
2023/07/04 01:42:06;;;;;;;6.82;3.60;;;15.40;99.90;;;;;;6225550;23;20028;-91
2023/07/04 01:44:53;;;;;;;7.90;4.43;;;15.40;99.90;;;;;;6219924;22;20028;-89
2023/07/04 01:47:41;;;;;;;9.07;4.07;;;15.40;99.90;;;;;;6216862;23;20031;-88
2023/07/04 01:50:28;;;;;;;10.05;4.05;;;15.30;99.90;;;;;;6216764;23;20099;-88
2023/07/04 01:53:16;;;;;;;6.85;3.55;;;15.30;99.90;;;;;;6217298;23;20036;-88
2023/07/04 01:56:03;;;;;;;9.35;3.70;;;15.30;99.90;;;;;;6219219;23;20024;-92
2023/07/04 01:58:53;;;;;;;5.85;3.28;;;15.30;99.90;;;;;;6215202;23;20035;-90
2023/07/04 02:01:43;;;;;;;8.45;3.53;;;15.30;62.90;;;;;;6219882;23;20035;-90
2023/07/04 02:04:35;;;;;;;7.13;3.30;;;15.20;20.50;;;;;;6217739;23;20021;-90
2023/07/04 02:07:23;;;;;;;4.70;3.10;;;15.20;1.00;;;;;;6218108;23;20044;-90
2023/07/04 02:10:11;;;;;;;6.90;3.08;;;15.20;1.00;;;;;;6214192;23;20035;-91
2023/07/04 02:12:58;;;;;;;6.50;2.95;;;15.10;1.00;;;;;;6218377;23;20594;-90
2023/07/04 02:15:45;;;;;;;5.20;3.05;;;15.10;1.00;;;;;;6216638;23;20028;-90
2023/07/04 02:18:33;;;;;;;7.13;3.88;;;15.00;1.00;;;;;;6216100;23;20056;-90
2023/07/04 02:21:22;;;;;;;7.40;3.38;;;15.00;65.90;;;;;;6216713;23;20028;-90
2023/07/04 02:24:12;;;;;;;6.50;3.17;;;14.90;99.90;;;;;;6238669;23;20020;-88
2023/07/04 02:27:00;;;;;;;4.10;3.00;;;15.00;99.90;;;;;;6216209;23;20107;-89
2023/07/04 02:29:48;;;;;;;5.90;3.17;;;14.90;99.90;;;;;;6215539;23;20040;-91
2023/07/04 02:32:38;;;;;;;4.55;3.00;;;14.90;99.90;;;;;;6216186;23;20028;-89
2023/07/04 02:35:29;;;;;;;4.18;2.85;;;14.80;99.90;;;;;;6219249;22;20130;-90
2023/07/04 02:38:17;;;;;;;6.45;3.45;;;14.70;1.00;;;;;;6215296;23;20029;-89
2023/07/04 02:41:05;;;;;;;6.68;3.58;;;14.60;99.90;;;;;;6218031;23;20031;-89
2023/07/04 02:43:53;;;;;;;7.90;3.40;;;14.60;99.90;;;;;;6217175;23;20020;-90
2023/07/04 02:46:43;;;;;;;6.40;4.07;;;14.50;99.90;;;;;;6217467;23;20021;-92
2023/07/04 02:49:30;;;;;;;7.15;3.45;;;14.40;1.00;;;;;;6217165;23;20443;-90
2023/07/04 02:52:17;;;;;;;6.10;3.50;;;14.40;99.90;;;;;;6217956;23;20281;-89
2023/07/04 02:55:05;;;;;;;5.22;3.47;;;14.40;1.00;;;;;;6214514;23;20032;-89
2023/07/04 02:57:55;;;;;;;6.97;3.85;;;14.30;1.00;;;;;;6202189;23;20021;-90
2023/07/04 03:00:43;;;;;;;6.72;3.50;;;14.30;71.70;;;;;;6229288;23;20387;-89
2023/07/04 03:03:31;;;;;;;8.07;3.67;;;14.30;99.90;;;;;;6206982;23;20035;-90
2023/07/04 03:06:19;;;;;;;6.78;3.42;;;14.30;99.90;;;;;;6206124;23;20103;-90
2023/07/04 03:09:06;;;;;;;7.70;3.92;;;14.40;99.90;;;;;;6207726;23;20024;-89
2023/07/04 03:11:54;;;;;;;5.18;3.25;;;14.40;99.90;;;;;;6212702;23;20023;-87
2023/07/04 03:14:42;;;;;;;5.65;3.42;;;14.40;99.90;;;;;;6238385;23;20103;-91
2023/07/04 03:17:29;;;;;;;9.27;3.10;;;14.50;99.90;;;;;;6216707;23;20051;-88
2023/07/04 03:20:16;;;;;;;5.25;2.80;;;14.50;99.90;;;;;;6212783;23;20021;-89
2023/07/04 03:23:04;;;;;;;6.45;2.78;;;14.60;63.80;;;;;;6222530;23;20032;-89
2023/07/04 03:25:51;;;;;;;7.00;3.70;;;14.60;1.00;;;;;;6220378;23;20032;-89
2023/07/04 03:28:41;;;;;;;3.55;2.63;;;14.70;1.00;;;;;;6223967;23;20074;-92
2023/07/04 03:31:31;;;;;;;3.92;3.03;;;14.70;1.00;;;;;;6219457;23;20025;-90
2023/07/04 03:34:18;;;;;;;6.55;3.05;;;14.70;99.90;;;;;;6215463;23;20428;-89
2023/07/04 03:37:05;;;;;;;4.95;3.30;;;14.70;99.90;;;;;;6216323;23;20112;-89
2023/07/04 03:39:55;;;;;;;7.00;3.33;;;14.70;99.90;;;;;;6193788;23;20438;-89
2023/07/04 03:42:45;;;;;;;5.45;2.45;;;14.70;99.90;;;;;;6215132;23;20568;-91
2023/07/04 03:45:32;;;;;;;5.07;2.90;;;14.70;99.90;;;;;;6216145;23;20031;-90
2023/07/04 03:48:22;;;;;;;4.30;2.60;;;14.70;78.70;;;;;;6220425;23;20029;-91
2023/07/04 03:51:12;;;;;;;4.10;2.65;;;14.80;1.00;;;;;;6218497;23;20339;-91
2023/07/04 03:53:59;;;;;;;3.58;2.40;;;14.80;1.00;;;;;;6221157;23;20475;-88
2023/07/04 03:56:49;;;;;;;5.38;2.90;;;14.80;99.90;;;;;;6219859;23;20087;-91
2023/07/04 03:59:37;;;;;;;6.72;2.78;;;14.90;99.90;;;;;;6216735;23;20028;-93
2023/07/04 04:03:02;;;;;;;3.63;2.75;;;14.90;99.90;;;;;;6216529;23;20052;-92
2023/07/04 04:05:51;;;;;;;5.13;2.50;;;14.90;80.80;;;;;;6215365;23;20035;-92
2023/07/04 04:08:55;;;;;;;4.57;3.00;;;14.90;43.60;;;;;;6215219;23;20028;-89
2023/07/04 04:11:52;;;;;;;4.78;2.83;;;15.00;12.60;;;;;;6197239;23;20056;-89
2023/07/04 04:14:44;;;;;;;4.00;2.40;;;15.00;1.00;;;;;;6222841;23;20034;-91
2023/07/04 04:17:31;;;;;;;3.65;2.50;;;15.10;1.00;;;;;;6219236;23;20044;-90
2023/07/04 04:20:18;;;;;;;9.18;3.17;;;15.10;99.90;;;;;;6219008;23;20029;-92
2023/07/04 04:23:08;;;;;;;5.53;3.15;;;15.20;99.90;;;;;;6215634;23;20025;-92
2023/07/04 04:25:58;;;;;;;5.10;3.25;;;15.20;18.30;;;;;;6218207;23;20024;-88
2023/07/04 04:28:46;;;;;;;5.47;2.70;;;15.20;45.80;;;;;;6220086;23;20021;-93
2023/07/04 04:31:37;;;;;;;5.28;2.85;;;15.30;1.00;;;;;;6218679;23;20035;-89
2023/07/04 04:34:24;;;;;;;7.80;3.90;;;15.30;1.00;;;;;;6221015;23;20025;-88
2023/07/04 04:37:12;;;;;;;7.03;3.67;;;15.40;99.90;;;;;;6222487;23;20036;-90
2023/07/04 04:40:16;;;;;;;6.05;3.08;;;15.40;99.90;;;;;;6219951;23;20032;-92
2023/07/04 04:43:04;;;;;;;8.85;4.10;;;15.50;43.00;;;;;;6198158;23;20369;-91
2023/07/04 04:45:51;;;;;;;4.93;3.45;;;15.50;1.00;;;;;;6200305;23;20239;-91
2023/07/04 04:48:41;;;;;;;3.90;3.03;;;15.60;99.90;;;;;;6219945;23;20054;-91
2023/07/04 04:51:34;;;;;;;8.23;3.30;;;15.70;99.90;;;;;;6218666;23;20052;-90
2023/07/04 04:54:23;;;;;;;6.97;3.53;;;15.70;1.00;;;;;;6197003;23;20029;-89
2023/07/04 04:57:13;;;;;;;5.93;2.97;;;15.70;1.00;;;;;;6199507;23;20432;-89
2023/07/04 05:00:00;;;;;;;7.35;3.50;;;15.80;99.90;;;;;;6200034;23;20500;-89
2023/07/04 05:02:48;;;;;;;4.75;3.10;;;15.90;33.90;;;;;;6201453;23;20024;-90
2023/07/04 05:05:35;;;;;;;8.02;2.67;;;15.90;99.90;;;;;;6219566;23;20114;-88
2023/07/04 05:08:22;;;;;;;8.68;3.28;;;16.00;99.90;;;;;;6198284;23;20029;-93
2023/07/04 05:11:13;;;;;;;4.13;3.15;;;16.10;99.90;;;;;;6216154;23;20028;-90
2023/07/04 05:14:00;;;;;;;5.28;2.95;;;16.10;1.00;;;;;;6199537;23;20039;-90
2023/07/04 05:16:48;;;;;;;8.00;3.30;;;16.10;1.00;;;;;;6218617;23;20099;-89
2023/07/04 05:19:35;;;;;;;4.30;3.10;;;16.10;99.90;;;;;;6218684;23;20028;-89
2023/07/04 05:22:25;;;;;;;5.13;2.83;;;16.10;99.90;;;;;;6217667;23;20024;-90
2023/07/04 05:25:16;;;;;;;5.23;2.93;;;16.20;99.90;;;;;;6198204;23;20316;-90
2023/07/04 05:28:04;;;;;;;7.88;3.30;;;16.20;43.30;;;;;;6177043;23;20524;-90
2023/07/04 05:31:09;;;;;;;7.25;2.92;;;16.20;1.00;;;;;;6197272;23;20076;-90
2023/07/04 05:34:00;;;;;;;9.50;3.50;;;16.30;1.00;;;;;;6217957;23;20028;-90
2023/07/04 05:36:48;;;;;;;7.45;3.38;;;16.30;99.90;;;;;;6197376;23;20036;-89
2023/07/04 05:39:35;;;;;;;5.38;3.20;;;16.30;99.90;;;;;;6218815;23;20035;-89
2023/07/04 05:42:25;;;;;;;5.68;3.30;;;16.20;99.90;;;;;;6220356;22;20028;-89
2023/07/04 05:45:13;;;;;;;5.15;3.20;;;16.20;99.90;;;;;;6221969;23;20039;-90
2023/07/04 05:48:00;;;;;;;8.90;2.75;;;16.30;99.90;;;;;;6197473;23;20025;-89
2023/07/04 05:50:55;;;;;;;4.43;2.42;;;16.40;99.90;;;;;;6215504;23;20035;-89
2023/07/04 05:53:45;;;;;;;11.00;3.25;;;16.50;99.90;;;;;;6217657;23;20401;-93
2023/07/04 05:56:35;;;;;;;4.65;3.05;;;16.60;99.90;;;;;;6219444;23;20328;-90
2023/07/04 05:59:22;;;;;;;4.35;2.55;;;16.70;99.90;;;;;;6175335;23;20032;-88
2023/07/04 06:02:12;;;;;;;7.68;2.50;;;16.60;80.40;;;;;;6217366;23;20376;-90
2023/07/04 06:04:59;;;;;;;3.38;2.58;;;16.70;1.00;;;;;;6198665;23;20035;-89
2023/07/04 06:07:49;;;;;;;10.68;2.90;;;16.60;3.10;;;;;;6217836;23;20060;-91
2023/07/04 06:10:38;;;;;;;5.28;3.15;;;16.60;9.10;;;;;;6194374;23;20021;-90
2023/07/04 06:13:27;;;;;;;8.05;2.97;;;16.80;1.00;;;;;;6217307;23;20430;-89
2023/07/04 06:16:16;;;;;;;6.60;3.10;;;17.20;1.00;;;;;;6218650;23;20024;-88
2023/07/04 06:19:03;;;;;;;3.92;2.55;;;17.50;99.90;;;;;;6216388;23;20032;-90
2023/07/04 06:21:51;;;;;;;5.13;2.50;;;17.50;99.90;;;;;;6217178;23;20103;-87
2023/07/04 06:24:42;;;;;;;7.05;2.97;;;17.60;99.90;;;;;;6218334;23;20024;-91
2023/07/04 06:27:30;;;;;;;6.07;2.60;;;17.70;37.30;;;;;;6217206;23;20020;-91
2023/07/04 06:30:17;;;;;;;7.82;2.83;;;17.90;1.00;;;;;;6217675;23;20385;-89
2023/07/04 06:33:06;;;;;;;3.55;2.35;;;17.80;1.00;;;;;;6215134;23;20021;-90
2023/07/04 06:35:53;;;;;;;6.55;2.70;;;17.70;99.90;;;;;;6217266;23;20096;-89
2023/07/04 06:38:44;;;;;;;5.45;2.83;;;17.70;99.90;;;;;;6219832;23;20047;-87
2023/07/04 06:41:31;;;;;;;4.50;2.75;;;17.70;99.90;;;;;;6219754;23;20312;-89
2023/07/04 06:44:21;;;;;;;7.38;2.88;;;17.60;99.90;;;;;;6229243;23;20024;-91
2023/07/04 06:47:11;;;;;;;4.15;2.67;;;17.40;99.90;;;;;;6206552;23;20028;-91
2023/07/04 06:50:01;;;;;;;5.97;2.85;;;17.50;99.90;;;;;;6225587;23;20021;-90
2023/07/04 06:52:48;;;;;;;4.30;2.60;;;17.60;99.90;;;;;;6225161;23;20024;-93
2023/07/04 06:55:36;;;;;;;4.30;2.35;;;17.70;99.90;;;;;;6221893;23;20029;-92
2023/07/04 06:58:27;;;;;;;3.95;2.20;;;17.80;99.90;;;;;;6199701;23;20028;-89
2023/07/04 07:01:21;;;;;;;6.30;2.28;;;18.00;99.90;;;;;;6195814;23;20052;-89
2023/07/04 07:04:11;;;;;;;4.07;2.42;;;18.20;99.90;;;;;;6222221;23;20027;-91
2023/07/04 07:07:05;;;;;;;6.88;2.47;;;18.30;99.90;;;;;;6225317;23;20373;-92
2023/07/04 07:09:54;;;;;;;5.28;2.80;;;18.40;99.90;;;;;;6199302;23;20040;-91
2023/07/04 07:12:41;;;;;;;8.00;2.50;;;18.50;52.00;;;;;;6219471;23;20028;-91
2023/07/04 07:39:40;;;;;;;5.32;2.50;;;18.90;99.90;;;;;;6219303;23;20072;-91
2023/07/04 07:42:27;;;;;;;9.02;2.85;;;18.90;99.90;;;;;;6197165;23;20039;-87
2023/07/04 07:45:18;;;;;;;3.50;2.15;;;19.00;99.90;;;;;;6197179;23;20442;-91
2023/07/04 07:48:07;;;;;;;8.13;2.90;;;19.10;99.90;;;;;;6216931;23;20024;-88
2023/07/04 07:50:55;;;;;;;8.60;2.42;;;19.30;99.90;;;;;;6216246;23;20024;-89
2023/07/04 07:53:45;;;;;;;5.20;2.63;;;19.30;99.90;;;;;;6196348;23;20035;-88
2023/07/04 07:56:39;;;;;;;8.18;2.70;;;19.40;99.90;;;;;;6195525;23;20028;-90
2023/07/04 07:59:29;;;;;;;7.05;3.33;;;19.50;99.90;;;;;;6194479;23;20028;-88
2023/07/04 08:02:16;;;;;;;10.93;3.20;;;19.60;99.90;;;;;;6216757;23;20691;-90
2023/07/04 08:05:07;;;;;;;11.32;3.78;;;19.50;99.90;;;;;;6215920;23;20025;-86
2023/07/04 08:07:55;;;;;;;12.83;3.80;;;19.70;99.90;;;;;;6194873;23;20044;-86
2023/07/04 08:10:43;;;;;;;4.32;2.38;;;19.60;99.90;;;;;;6206351;23;20025;-88
2023/07/04 09:05:39;;;;;;;11.52;3.65;;;21.40;99.90;;;;;;6223322;23;20702;-89
2023/07/04 09:08:35;;;;;;;9.48;3.92;;;21.80;97.00;;;;;;6218807;23;20028;-88
2023/07/04 09:11:23;;;;;;;7.78;3.80;;;21.60;94.70;;;;;;6223002;23;20029;-90
2023/07/04 09:14:38;;;;;;;17.40;3.88;;;21.50;84.90;;;;;;6198303;23;20029;-87
2023/07/04 09:17:39;;;;;;;11.10;3.80;;;21.90;86.20;;;;;;6222882;23;20424;-87
2023/07/04 09:20:33;;;;;;;10.38;3.88;;;22.30;76.80;;;;;;6225231;23;20039;-91
2023/07/04 09:23:23;;;;;;;16.63;5.28;;;23.20;47.70;;;;;;6206931;23;20031;-89
2023/07/04 09:26:28;;;;;;;13.98;4.20;;;23.20;26.50;;;;;;6235257;23;20031;-90
2023/07/04 09:29:24;;;;;;;11.82;4.85;;;23.60;20.70;;;;;;6231412;23;20028;-91
2023/07/04 09:32:14;;;;;;;7.22;3.30;;;24.00;13.00;;;;;;6222007;23;20024;-93
2023/07/04 09:35:06;;;;;;;6.63;3.47;;;24.10;3.20;;;;;;6201355;23;20021;-91
2023/07/04 09:37:58;;;;;;;9.13;3.92;;;24.40;1.00;;;;;;6217766;23;20027;-89
2023/07/04 09:40:55;;;;;;;9.57;4.68;;;24.00;1.00;;;;;;6220258;23;20025;-88
2023/07/04 09:43:44;;;;;;;8.95;4.47;;;24.60;1.00;;;;;;6218674;23;20024;-86
2023/07/04 09:46:32;;;;;;;7.10;4.32;;;25.20;1.00;;;;;;6220694;23;20106;-92
2023/07/04 09:49:31;;;;;;;8.63;3.95;;;24.10;1.00;;;;;;6220706;23;20025;-92
2023/07/04 09:52:26;;;;;;;6.85;3.70;;;23.70;1.00;;;;;;6217358;23;20099;-90
2023/07/04 09:55:25;;;;;;;6.97;3.58;;;23.20;1.00;;;;;;6216599;23;20028;-89
2023/07/04 09:58:16;;;;;;;5.07;3.45;;;23.60;1.00;;;;;;6239711;23;20009;-88
2023/07/04 10:01:15;;;;;;;10.32;3.92;;;23.70;1.00;;;;;;6242440;23;20048;-88
2023/07/04 10:04:07;;;;;;;9.88;4.00;;;23.80;1.00;;;;;;6239145;23;20012;-90
2023/07/04 10:06:57;;;;;;;6.10;3.20;;;24.00;1.00;;;;;;6238715;23;20075;-90
2023/07/04 10:10:01;;;;;;;6.85;3.22;;;24.60;1.00;;;;;;6233144;23;20032;-91
2023/07/04 10:12:50;;;;;;;9.85;3.63;;;25.20;1.00;;;;;;6232099;23;20055;-93
2023/07/04 10:15:43;;;;;;;7.72;3.80;;;25.40;1.00;;;;;;6227817;23;20300;-91
2023/07/04 10:18:33;;;;;;;8.20;3.80;;;24.70;1.00;;;;;;6220136;23;20104;-87
2023/07/04 10:21:23;;;;;;;8.25;3.92;;;24.30;1.00;;;;;;6220602;23;20320;-91
2023/07/04 10:24:18;;;;;;;9.32;4.05;;;24.10;1.00;;;;;;6225921;22;20074;-90
2023/07/04 10:27:37;;;;;;;8.02;3.70;;;24.50;1.00;;;;;;6203411;23;20025;-88
2023/07/04 10:30:32;;;;;;;5.43;3.55;;;25.20;1.00;;;;;;6222925;23;20025;-90
2023/07/04 10:33:31;;;;;;;8.07;3.40;;;25.50;1.00;;;;;;6201405;23;20305;-89
2023/07/04 10:36:32;;;;;;;5.63;2.88;;;26.40;1.00;;;;;;6204942;23;20033;-88
2023/07/04 11:07:33;;;;;;;12.68;3.53;;;26.90;1.00;;;;;;6220148;23;20411;-89
2023/07/04 11:10:29;;;;;;;26.88;6.75;;;26.70;1.00;;;;;;6227064;22;20024;-89
2023/07/04 11:13:20;;;;;;;13.68;4.15;;;26.10;1.00;;;;;;6229529;23;20376;-91
2023/07/04 11:16:11;;;;;;;6.05;3.50;;;27.10;1.00;;;;;;6227116;23;20024;-91
2023/07/04 11:19:17;;;;;;;6.40;3.55;;;27.30;1.00;;;;;;6220739;23;20056;-89
2023/07/04 11:22:04;;;;;;;9.82;3.50;;;27.70;1.00;;;;;;6220693;23;20025;-89
2023/07/04 11:37:00;;;;;;;4.57;2.78;;;27.80;1.00;;;;;;6246171;23;20028;-89
2023/07/04 11:39:52;;;;;;;5.40;2.85;;;27.20;1.00;;;;;;6248770;23;20055;-89
2023/07/04 11:42:47;;;;;;;5.18;3.10;;;28.20;1.00;;;;;;6249131;23;20024;-90
2023/07/04 11:45:39;;;;;;;4.25;2.42;;;29.50;1.00;;;;;;6246648;23;20059;-89
2023/07/04 11:48:29;;;;;;;5.57;2.53;;;30.80;1.00;;;;;;6248414;23;20020;-88
2023/07/04 11:51:32;;;;;;;4.70;2.35;;;31.70;1.00;;;;;;6246964;23;20028;-92
2023/07/04 11:54:25;;;;;;;3.97;2.75;;;31.90;1.00;;;;;;6250360;23;20141;-91
2023/07/04 11:57:13;;;;;;;5.40;3.20;;;31.10;1.00;;;;;;6250410;23;20034;-91
2023/07/04 12:00:04;;;;;;;6.85;2.35;;;30.00;1.00;;;;;;6249204;23;20044;-94
2023/07/04 12:02:51;;;;;;;4.00;2.10;;;28.70;1.00;;;;;;6248223;23;20315;-90
2023/07/04 12:05:39;;;;;;;4.30;2.47;;;27.60;1.00;;;;;;6249185;23;20028;-92
2023/07/04 12:08:31;;;;;;;42.50;7.47;;;27.00;1.00;;;;;;6252728;23;20028;-92
2023/07/04 12:11:29;;;;;;;4.90;2.55;;;26.80;1.00;;;;;;6257751;23;20023;-91
2023/07/04 12:14:18;;;;;;;10.38;3.20;;;27.00;1.00;;;;;;6255789;23;20024;-91
2023/07/04 12:17:14;;;;;;;5.05;2.60;;;27.00;1.00;;;;;;6258297;23;20051;-93
2023/07/04 12:20:04;;;;;;;4.22;2.33;;;27.90;1.00;;;;;;6249311;23;20085;-92
2023/07/04 12:23:01;;;;;;;3.25;2.15;;;28.60;1.00;;;;;;6253021;23;20055;-90
2023/07/04 12:25:53;;;;;;;6.10;2.53;;;29.00;1.00;;;;;;6250058;23;20031;-90
2023/07/04 12:28:46;;;;;;;5.80;2.47;;;29.40;1.00;;;;;;6249208;23;20368;-92
2023/07/04 12:31:34;;;;;;;8.38;2.58;;;29.40;1.00;;;;;;6250279;23;20301;-89
2023/07/04 12:34:29;;;;;;;8.27;2.75;;;28.80;1.00;;;;;;6248774;23;20106;-89
2023/07/04 12:37:47;;;;;;;5.75;2.65;;;28.60;1.00;;;;;;6252200;22;20027;-89
2023/07/04 12:40:35;;;;;;;6.32;2.90;;;28.00;1.00;;;;;;6247956;23;20030;-92
2023/07/04 12:43:28;;;;;;;7.45;2.50;;;27.30;1.00;;;;;;6250718;23;20024;-92
2023/07/04 12:46:21;;;;;;;6.47;2.65;;;26.60;1.00;;;;;;6248657;23;20102;-94
2023/07/04 12:49:17;;;;;;;5.03;3.05;;;26.30;1.00;;;;;;6248080;23;20090;-93
2023/07/04 12:52:07;;;;;;;5.13;2.20;;;26.10;1.00;;;;;;6248398;23;20053;-90
2023/07/04 12:54:56;;;;;;;4.10;2.22;;;26.80;1.00;;;;;;6249179;23;20032;-87
2023/07/04 12:57:43;;;;;;;6.75;2.90;;;27.20;1.00;;;;;;6246639;23;20024;-88
2023/07/04 13:00:58;;;;;;;3.83;2.25;;;27.70;1.00;;;;;;6248631;23;20028;-93
2023/07/04 13:03:45;;;;;;;6.22;2.70;;;28.50;1.00;;;;;;6246938;23;20040;-90
2023/07/04 13:06:34;;;;;;;4.22;2.85;;;28.50;1.00;;;;;;6247109;23;20063;-90
2023/07/04 13:09:24;;;;;;;9.38;2.80;;;28.60;1.00;;;;;;6246988;23;20048;-90
2023/07/04 13:12:12;;;;;;;5.90;2.65;;;28.10;1.00;;;;;;6252431;23;20024;-88
2023/07/04 13:15:08;;;;;;;4.78;2.40;;;27.60;1.00;;;;;;6249805;23;20058;-89
2023/07/04 13:18:03;;;;;;;4.97;2.75;;;26.80;1.00;;;;;;6247419;23;20339;-87
2023/07/04 13:20:58;;;;;;;7.05;2.60;;;26.30;1.00;;;;;;6246630;23;20075;-87
2023/07/04 13:23:45;;;;;;;5.00;2.72;;;25.70;1.00;;;;;;6246449;23;20059;-87
2023/07/04 13:26:54;;;;;;;5.25;2.65;;;26.00;1.00;;;;;;6246616;23;20288;-88
2023/07/04 13:30:01;;;;;;;6.85;2.80;;;26.30;1.00;;;;;;6246498;23;20020;-87
2023/07/04 13:32:51;;;;;;;4.18;2.17;;;26.70;1.00;;;;;;6247128;23;20020;-87
2023/07/04 13:35:46;;;;;;;5.53;2.45;;;27.90;1.00;;;;;;6247820;23;20027;-90
2023/07/04 13:38:34;;;;;;;4.00;2.47;;;28.50;1.00;;;;;;6247802;23;20035;-88
2023/07/04 13:41:24;;;;;;;3.45;2.03;;;30.10;1.00;;;;;;6249109;23;20038;-90
2023/07/04 13:44:15;;;;;;;5.70;2.50;;;30.20;1.00;;;;;;6225105;23;20023;-88
2023/07/04 13:47:25;;;;;;;3.95;2.33;;;29.70;1.00;;;;;;6247852;23;20023;-89
2023/07/04 13:50:14;;;;;;;4.07;2.00;;;28.50;1.00;;;;;;6247509;23;20020;-89
2023/07/04 13:53:04;;;;;;;2.70;2.10;;;27.70;1.00;;;;;;6246436;23;20048;-88
2023/07/04 13:56:01;;;;;;;5.75;2.58;;;27.00;1.00;;;;;;6246381;23;20115;-87
2023/07/04 13:58:49;;;;;;;5.47;2.38;;;26.60;1.00;;;;;;6248866;23;20092;-87
2023/07/04 14:01:36;;;;;;;3.67;2.63;;;26.80;1.00;;;;;;6246344;23;20028;-89
2023/07/04 14:04:29;;;;;;;4.72;2.67;;;28.60;1.00;;;;;;6251397;23;20028;-88
2023/07/04 14:07:22;;;;;;;5.93;2.65;;;30.30;1.00;;;;;;6246111;23;20087;-85
2023/07/04 14:10:15;;;;;;;5.05;2.25;;;30.10;1.00;;;;;;6249683;23;20047;-90
2023/07/04 14:13:19;;;;;;;2.72;1.95;;;30.90;1.00;;;;;;6248452;23;20031;-91
2023/07/04 14:16:27;;;;;;;4.57;2.15;;;32.30;1.00;;;;;;6250046;23;20035;-90
2023/07/04 14:19:17;;;;;;;3.95;2.15;;;32.70;1.00;;;;;;6248309;23;20024;-88
2023/07/04 14:22:08;;;;;;;4.25;2.08;;;31.00;1.00;;;;;;6246355;23;20441;-87
2023/07/04 14:25:03;;;;;;;4.18;2.17;;;30.00;1.00;;;;;;6247673;23;20024;-92
2023/07/04 14:27:52;;;;;;;2.85;1.75;;;30.30;1.00;;;;;;6245942;23;20024;-90
2023/07/04 14:30:42;;;;;;;3.45;2.30;;;31.00;1.00;;;;;;6246349;23;20038;-88
2023/07/04 14:33:35;;;;;;;3.97;2.10;;;30.60;1.00;;;;;;6250849;23;20070;-88
2023/07/04 14:36:22;;;;;;;3.63;1.98;;;31.10;1.00;;;;;;6228845;22;20090;-88
2023/07/04 14:39:10;;;;;;;3.95;2.28;;;31.10;1.00;;;;;;6246490;23;20032;-89
2023/07/04 14:41:58;;;;;;;4.50;2.25;;;31.20;1.00;;;;;;6246675;23;20031;-89
2023/07/04 14:44:51;;;;;;;4.00;2.10;;;31.90;1.00;;;;;;6248477;23;20120;-89
2023/07/04 14:47:41;;;;;;;3.20;2.00;;;32.70;1.00;;;;;;6248180;23;20422;-91
2023/07/04 14:50:29;;;;;;;10.40;2.25;;;31.70;1.00;;;;;;6247466;23;20099;-89
2023/07/04 14:53:17;;;;;;;3.45;1.80;;;31.70;1.00;;;;;;6247633;23;20031;-89
2023/07/04 14:56:10;;;;;;;4.82;2.20;;;32.10;1.00;;;;;;6246229;23;20304;-91
2023/07/04 14:58:58;;;;;;;3.65;2.20;;;32.40;1.00;;;;;;6248466;23;20032;-91
2023/07/04 15:01:46;;;;;;;6.07;4.57;;;32.60;1.00;;;;;;6245546;23;20039;-89
2023/07/04 15:04:36;;;;;;;6.38;3.75;;;31.70;1.00;;;;;;6246516;23;20032;-90
2023/07/04 15:07:26;;;;;;;5.50;2.58;;;30.60;1.00;;;;;;6248533;23;20028;-91
2023/07/04 15:10:15;;;;;;;4.88;2.50;;;30.10;1.00;;;;;;6247875;23;20035;-90
2023/07/04 15:13:04;;;;;;;4.32;2.30;;;31.00;1.00;;;;;;6249524;22;20147;-90
2023/07/04 15:15:57;;;;;;;3.85;2.10;;;32.00;1.00;;;;;;6250800;23;20043;-88
2023/07/04 15:18:44;;;;;;;3.13;1.90;;;32.20;1.00;;;;;;6247856;23;20335;-92
2023/07/04 15:21:33;;;;;;;3.70;2.42;;;31.70;1.00;;;;;;6245535;23;20038;-90
2023/07/04 15:24:21;;;;;;;4.75;2.05;;;30.90;1.00;;;;;;6245873;23;20356;-90
2023/07/04 15:27:11;;;;;;;5.70;2.20;;;30.50;1.00;;;;;;6246384;23;20028;-88
2023/07/04 15:29:59;;;;;;;3.85;1.92;;;29.40;1.00;;;;;;6251102;23;20032;-91
2023/07/04 15:32:50;;;;;;;2.47;2.03;;;28.20;1.00;;;;;;6251574;23;20024;-89
2023/07/04 15:35:37;;;;;;;7.00;2.22;;;27.90;1.00;;;;;;6249503;23;20055;-89
2023/07/04 15:38:27;;;;;;;4.18;2.28;;;27.30;1.00;;;;;;6244750;23;20020;-87
2023/07/04 15:41:18;;;;;;;5.60;2.17;;;26.50;1.00;;;;;;6252684;23;20044;-87
2023/07/04 15:44:05;;;;;;;6.68;2.60;;;25.90;1.00;;;;;;6257034;23;20423;-86
2023/07/04 15:46:52;;;;;;;5.15;2.10;;;25.90;1.00;;;;;;6257613;23;20024;-86
2023/07/04 15:49:40;;;;;;;7.07;2.67;;;26.10;1.00;;;;;;6257046;23;20043;-92
2023/07/04 15:52:30;;;;;;;3.10;2.08;;;26.00;1.00;;;;;;6253430;23;20035;-87
2023/07/04 15:55:17;;;;;;;4.55;2.38;;;25.80;1.00;;;;;;6246216;23;20036;-87
2023/07/04 15:58:05;;;;;;;5.93;2.38;;;25.90;1.00;;;;;;6244989;23;20028;-87
2023/07/04 16:00:55;;;;;;;6.57;2.20;;;26.30;1.00;;;;;;6246144;23;20065;-88
2023/07/04 16:03:43;;;;;;;3.42;2.15;;;26.50;1.00;;;;;;6245461;23;20035;-89
2023/07/04 16:06:30;;;;;;;3.90;1.95;;;27.30;1.00;;;;;;6245521;23;20086;-88
2023/07/04 16:09:18;;;;;;;3.50;1.77;;;28.00;1.00;;;;;;6246681;23;20043;-90
2023/07/04 16:12:06;;;;;;;3.75;2.08;;;27.60;1.00;;;;;;6246929;23;20095;-87
2023/07/04 16:14:56;;;;;;;5.30;2.13;;;26.80;1.00;;;;;;6246610;23;20445;-88
2023/07/04 16:17:43;;;;;;;2.15;1.52;;;26.30;1.00;;;;;;6246668;23;20406;-88
2023/07/04 16:20:31;;;;;;;3.97;1.80;;;26.00;1.00;;;;;;6246177;23;20020;-89
2023/07/04 16:23:19;;;;;;;4.43;2.10;;;25.80;1.00;;;;;;6244447;23;20479;-88
2023/07/04 16:26:07;;;;;;;3.30;2.38;;;25.60;1.00;;;;;;6244739;23;20102;-89
2023/07/04 16:28:54;;;;;;;3.95;2.08;;;25.40;1.00;;;;;;6246226;23;20371;-88
2023/07/04 16:31:42;;;;;;;9.05;2.53;;;25.20;1.00;;;;;;6246702;23;20454;-88
2023/07/04 16:34:29;;;;;;;7.53;2.15;;;25.20;1.00;;;;;;6245116;23;20023;-89
2023/07/04 16:37:19;;;;;;;3.65;2.30;;;25.30;1.00;;;;;;6245886;23;20035;-90
2023/07/04 16:40:07;;;;;;;2.80;1.75;;;25.50;1.00;;;;;;6247723;23;20572;-87
2023/07/04 16:42:54;;;;;;;4.25;1.98;;;25.50;1.00;;;;;;6254510;23;20034;-89
2023/07/04 16:45:42;;;;;;;4.38;1.80;;;25.40;1.00;;;;;;6252804;23;20039;-90
2023/07/04 16:48:29;;;;;;;5.55;2.33;;;25.40;1.00;;;;;;6250110;23;20043;-88
2023/07/04 16:51:17;;;;;;;3.33;2.03;;;25.30;1.00;;;;;;6250001;23;20495;-88
2023/07/04 16:54:05;;;;;;;6.38;2.83;;;25.20;1.00;;;;;;6252462;23;20024;-88